Time;durP1;ratioP1;P1;durP2;ratioP2;P2;SDS_P1;SDS_P2;PMS_P1;PMS_P2;Temp;Humidity;BMP_temperature;BMP_pressure;BME280_temperature;BME280_humidity;BME280_pressure;Samples;Min_cycle;Max_cycle;Signal;HPM_P1;HPM_P2
2022/04/26 03:38:32;;;;;;;21.27;7.07;;;7.90;99.90;;;;;;4995219;28;20186;-68
2022/04/26 03:40:58;;;;;;;19.37;7.50;;;7.90;99.90;;;;;;4993093;28;20271;-68
2022/04/26 03:43:24;;;;;;;17.37;7.30;;;7.80;99.90;;;;;;4992091;28;20199;-68
2022/04/26 03:45:49;;;;;;;19.43;7.63;;;7.80;99.90;;;;;;4993005;28;20179;-68
2022/04/26 03:48:15;;;;;;;18.20;8.17;;;7.70;99.90;;;;;;5000147;28;20178;-68
2022/04/26 03:50:41;;;;;;;16.87;7.43;;;7.80;99.90;;;;;;5012503;28;20210;-68
2022/04/26 03:53:07;;;;;;;20.40;8.77;;;7.70;99.90;;;;;;5009732;28;20641;-68
2022/04/26 03:55:32;;;;;;;23.33;7.80;;;7.60;99.90;;;;;;5010817;28;20185;-68
2022/04/26 03:57:58;;;;;;;20.73;7.87;;;7.60;99.90;;;;;;5011458;28;20185;-68
2022/04/26 04:00:26;;;;;;;15.00;7.80;;;7.60;99.90;;;;;;5010691;28;20178;-68
2022/04/26 04:02:52;;;;;;;21.80;8.13;;;7.50;99.90;;;;;;5011600;28;20182;-69
2022/04/26 04:05:17;;;;;;;20.90;8.23;;;7.50;99.90;;;;;;4995722;28;20178;-69
2022/04/26 04:07:43;;;;;;;17.97;8.20;;;7.50;99.90;;;;;;4992998;28;20524;-69
2022/04/26 04:10:09;;;;;;;22.10;8.57;;;7.50;99.90;;;;;;5012109;28;20206;-68
2022/04/26 04:12:35;;;;;;;14.53;7.93;;;7.50;99.90;;;;;;5012143;28;20171;-66
2022/04/26 04:15:01;;;;;;;16.60;7.37;;;7.40;99.90;;;;;;5011703;28;20181;-67
2022/04/26 04:17:27;;;;;;;20.90;8.10;;;7.30;99.90;;;;;;5011890;28;20537;-69
2022/04/26 04:19:53;;;;;;;17.50;8.33;;;7.40;99.90;;;;;;5011615;28;20629;-67
2022/04/26 04:22:19;;;;;;;19.17;8.40;;;7.40;99.90;;;;;;5012041;28;20174;-67
2022/04/26 04:24:44;;;;;;;19.87;7.17;;;7.30;99.90;;;;;;5011013;28;20174;-66
2022/04/26 04:27:10;;;;;;;22.40;7.90;;;7.40;99.90;;;;;;5011872;28;20581;-67
2022/04/26 04:29:36;;;;;;;23.77;8.63;;;7.40;99.90;;;;;;5011975;28;20221;-68
2022/04/26 04:32:03;;;;;;;24.47;8.53;;;7.40;99.90;;;;;;5011835;28;20261;-67
2022/04/26 04:34:28;;;;;;;20.10;9.30;;;7.30;99.90;;;;;;5012161;28;20183;-67
2022/04/26 04:36:54;;;;;;;21.77;8.97;;;7.30;99.90;;;;;;4998800;28;20579;-68
2022/04/26 04:39:20;;;;;;;24.67;9.57;;;7.30;99.90;;;;;;5010839;28;20656;-68
2022/04/26 04:41:52;;;;;;;19.57;8.57;;;7.30;99.90;;;;;;5011571;28;20586;-68
2022/04/26 04:44:22;;;;;;;25.87;8.60;;;7.30;99.90;;;;;;5011843;28;20178;-68
2022/04/26 04:46:49;;;;;;;18.50;8.13;;;7.40;99.90;;;;;;5011769;28;20233;-67
2022/04/26 04:49:15;;;;;;;24.07;8.83;;;7.40;99.90;;;;;;5010768;28;20218;-67
2022/04/26 04:51:40;;;;;;;23.63;8.60;;;7.50;99.90;;;;;;4997210;28;20642;-66
2022/04/26 04:54:06;;;;;;;16.67;7.80;;;7.60;99.90;;;;;;4992228;28;20175;-67
2022/04/26 04:56:32;;;;;;;26.87;9.13;;;7.70;99.90;;;;;;5007094;28;20187;-65
2022/04/26 04:58:58;;;;;;;25.87;8.97;;;7.70;99.90;;;;;;4992017;28;20174;-67
2022/04/26 05:01:24;;;;;;;21.43;8.77;;;7.70;99.90;;;;;;5003852;28;20186;-66
2022/04/26 05:03:51;;;;;;;22.60;9.87;;;7.80;99.90;;;;;;5011270;28;20582;-67
2022/04/26 05:06:17;;;;;;;21.20;10.27;;;7.80;99.90;;;;;;5010932;28;20221;-66
2022/04/26 05:08:44;;;;;;;20.10;9.83;;;7.80;99.90;;;;;;5011316;28;20182;-67
2022/04/26 05:11:10;;;;;;;20.20;10.20;;;7.80;99.90;;;;;;5010812;28;20174;-66
2022/04/26 05:13:36;;;;;;;19.73;9.20;;;7.90;99.90;;;;;;5011206;28;20175;-66
2022/04/26 05:16:02;;;;;;;25.10;10.40;;;8.00;99.90;;;;;;5001954;28;20190;-67
2022/04/26 05:18:28;;;;;;;31.40;9.37;;;7.90;99.90;;;;;;4990879;28;20172;-66
2022/04/26 05:20:54;;;;;;;24.47;10.00;;;7.80;99.90;;;;;;4990807;28;20178;-66
2022/04/26 05:26:05;;;;;;;24.13;10.20;;;7.80;99.90;;;;;;4992961;28;20264;-67
2022/04/26 05:28:31;;;;;;;25.00;10.73;;;7.90;99.90;;;;;;5004270;28;20262;-66
2022/04/26 05:30:57;;;;;;;19.23;9.63;;;7.90;99.90;;;;;;5010896;28;20190;-66
2022/04/26 05:33:25;;;;;;;22.13;10.70;;;7.90;99.90;;;;;;5010877;28;20236;-60
2022/04/26 05:35:51;;;;;;;23.80;9.87;;;7.90;99.90;;;;;;5010830;28;20209;-63
2022/04/26 05:38:17;;;;;;;23.47;10.70;;;7.90;99.90;;;;;;5010595;28;20213;-65
2022/04/26 05:40:44;;;;;;;22.90;10.40;;;8.00;99.90;;;;;;5010897;28;20178;-65
2022/04/26 05:43:10;;;;;;;25.20;10.43;;;8.00;99.90;;;;;;5010992;28;20202;-66
2022/04/26 05:45:36;;;;;;;24.40;10.97;;;7.80;99.90;;;;;;5010925;28;20232;-67
2022/04/26 05:48:02;;;;;;;24.13;10.10;;;7.70;99.90;;;;;;5009920;28;20185;-65
2022/04/26 05:50:28;;;;;;;26.87;11.03;;;7.80;99.90;;;;;;4991226;28;20356;-66
2022/04/26 05:52:53;;;;;;;24.13;10.73;;;8.00;99.90;;;;;;5006189;28;20265;-66
2022/04/26 05:55:19;;;;;;;24.37;10.90;;;8.40;99.90;;;;;;5009987;28;20172;-66
2022/04/26 05:57:45;;;;;;;20.63;10.43;;;8.00;99.90;;;;;;5006260;28;20178;-66
2022/04/26 06:00:13;;;;;;;21.73;11.67;;;8.10;99.90;;;;;;5005708;28;20758;-67
2022/04/26 06:02:40;;;;;;;22.73;10.43;;;8.20;99.90;;;;;;4997105;28;20194;-67
2022/04/26 06:05:06;;;;;;;23.27;10.20;;;8.20;99.90;;;;;;4989783;28;20175;-63
2022/04/26 06:07:32;;;;;;;22.90;10.00;;;8.20;99.90;;;;;;4991292;28;20179;-63
2022/04/26 06:09:58;;;;;;;22.40;9.53;;;8.30;99.90;;;;;;4999915;28;20228;-63
2022/04/26 06:12:26;;;;;;;21.73;10.03;;;8.20;99.90;;;;;;4998956;28;20658;-64
2022/04/26 06:14:59;;;;;;;19.90;9.93;;;8.20;99.90;;;;;;5001375;28;20281;-63
2022/04/26 06:17:25;;;;;;;20.60;10.57;;;8.40;99.90;;;;;;5002196;28;20195;-63
2022/04/26 06:19:51;;;;;;;24.40;10.50;;;8.40;99.90;;;;;;5010716;28;20185;-63
2022/04/26 06:22:17;;;;;;;23.23;11.17;;;8.50;99.90;;;;;;5009909;28;20637;-63
2022/04/26 06:24:43;;;;;;;20.23;9.87;;;8.20;99.90;;;;;;5010598;28;20542;-64
2022/04/26 06:27:09;;;;;;;22.70;11.37;;;8.20;99.90;;;;;;5009652;28;20183;-64
2022/04/26 06:29:35;;;;;;;20.40;11.57;;;8.20;99.90;;;;;;5010472;28;20210;-63
2022/04/26 06:32:02;;;;;;;19.43;10.53;;;8.10;99.90;;;;;;5011444;28;20229;-63
2022/04/26 06:34:28;;;;;;;20.23;11.23;;;8.00;99.90;;;;;;5012675;28;20174;-63
2022/04/26 06:36:54;;;;;;;19.87;10.70;;;8.00;99.90;;;;;;5006462;28;20707;-69
2022/04/26 06:39:20;;;;;;;23.57;11.53;;;8.10;99.90;;;;;;5012779;28;20174;-68
2022/04/26 06:41:47;;;;;;;21.87;11.47;;;8.10;99.90;;;;;;5014046;28;20178;-68
2022/04/26 06:44:13;;;;;;;24.93;11.80;;;8.30;99.90;;;;;;5014195;28;20182;-69
2022/04/26 06:46:39;;;;;;;26.27;11.27;;;8.50;99.90;;;;;;4997545;28;20587;-69
2022/04/26 06:49:05;;;;;;;20.60;11.53;;;8.70;99.90;;;;;;5006922;28;20513;-70
2022/04/26 06:51:38;;;;;;;22.00;10.37;;;8.80;99.90;;;;;;5013835;28;20277;-68
2022/04/26 06:54:04;;;;;;;21.27;10.70;;;9.00;99.90;;;;;;5004456;28;20642;-68
2022/04/26 06:56:30;;;;;;;21.63;9.87;;;9.10;99.90;;;;;;4994210;28;20206;-69
2022/04/26 06:58:56;;;;;;;24.07;10.43;;;9.20;99.90;;;;;;4994305;28;20178;-68
2022/04/26 07:01:21;;;;;;;21.80;10.20;;;9.40;99.90;;;;;;4993978;28;20183;-68
2022/04/26 07:03:47;;;;;;;18.07;9.47;;;9.50;99.90;;;;;;4994094;28;20175;-70
2022/04/26 07:06:13;;;;;;;23.30;9.60;;;9.40;99.90;;;;;;4994173;28;20225;-70
2022/04/26 07:08:39;;;;;;;19.13;10.10;;;9.60;99.90;;;;;;4996225;28;20167;-69
2022/04/26 07:11:04;;;;;;;22.30;9.77;;;9.80;99.90;;;;;;5013671;28;20265;-72
2022/04/26 07:13:30;;;;;;;23.73;9.37;;;9.80;99.90;;;;;;5012611;28;20257;-61
2022/04/26 07:15:56;;;;;;;24.60;9.33;;;9.80;99.90;;;;;;5011756;28;20698;-61
2022/04/26 07:18:22;;;;;;;18.83;9.07;;;9.70;99.90;;;;;;5002119;28;20200;-60
2022/04/26 07:20:47;;;;;;;19.07;9.83;;;9.60;99.90;;;;;;5001857;28;20224;-60
2022/04/26 07:23:13;;;;;;;25.67;9.03;;;9.60;99.90;;;;;;5003659;28;20281;-60
2022/04/26 07:25:40;;;;;;;19.70;9.57;;;9.60;99.90;;;;;;5002685;28;20294;-60
2022/04/26 07:28:06;;;;;;;18.63;9.23;;;9.50;99.90;;;;;;5002081;28;20182;-60
2022/04/26 07:30:35;;;;;;;18.40;8.33;;;9.50;99.90;;;;;;5003763;28;20233;-60
2022/04/26 07:35:50;;;;;;;17.20;9.10;;;9.60;99.90;;;;;;5002720;28;20202;-60
2022/04/26 07:38:16;;;;;;;14.43;8.60;;;9.70;99.90;;;;;;5003394;28;20285;-61
2022/04/26 07:40:42;;;;;;;17.97;7.83;;;9.70;99.90;;;;;;5002720;28;20254;-60
2022/04/26 07:43:08;;;;;;;16.47;8.00;;;9.80;99.90;;;;;;5003699;28;20198;-60
2022/04/26 07:45:38;;;;;;;20.33;8.13;;;9.80;99.90;;;;;;5004375;28;20590;-60
2022/04/26 07:48:06;;;;;;;23.10;7.87;;;9.70;99.90;;;;;;5005486;28;20167;-64
2022/04/26 07:50:32;;;;;;;16.77;8.00;;;9.70;99.90;;;;;;5000467;28;20203;-63
2022/04/26 07:52:59;;;;;;;14.13;7.33;;;9.80;99.90;;;;;;4997190;28;20179;-64
2022/04/26 07:55:25;;;;;;;21.77;7.83;;;9.90;99.90;;;;;;5000512;28;20183;-61
2022/04/26 07:57:51;;;;;;;19.30;7.77;;;10.00;99.90;;;;;;5012386;28;20174;-76
2022/04/26 08:00:16;;;;;;;16.50;6.73;;;9.90;99.90;;;;;;5012623;28;20178;-72
2022/04/26 08:02:43;;;;;;;20.93;8.00;;;9.70;99.90;;;;;;5012413;28;20174;-73
2022/04/26 08:05:09;;;;;;;15.53;7.40;;;9.50;99.90;;;;;;5006683;28;20209;-66
2022/04/26 08:07:39;;;;;;;18.73;7.67;;;9.80;99.90;;;;;;5002591;28;20226;-66
2022/04/26 08:10:10;;;;;;;18.93;6.70;;;10.10;99.90;;;;;;4998812;28;20254;-73
2022/04/26 08:12:37;;;;;;;18.17;7.00;;;10.50;99.90;;;;;;5008375;28;20262;-74
2022/04/26 08:15:04;;;;;;;20.37;7.00;;;10.80;99.90;;;;;;4997866;28;20262;-74
2022/04/26 08:17:29;;;;;;;12.33;6.30;;;11.20;99.90;;;;;;4992817;28;20175;-75
2022/04/26 08:19:55;;;;;;;13.50;5.77;;;11.60;99.90;;;;;;4992630;28;20186;-75
2022/04/26 08:22:21;;;;;;;15.90;6.07;;;13.50;99.90;;;;;;5001588;28;20206;-75
2022/04/26 08:27:33;;;;;;;8.70;5.10;;;16.20;99.90;;;;;;5011794;28;20700;-74
2022/04/26 08:30:00;;;;;;;13.60;5.55;;;17.20;99.90;;;;;;5011550;28;20228;-75
2022/04/26 08:32:28;;;;;;;9.77;4.95;;;17.10;99.90;;;;;;5011830;28;20189;-75
2022/04/26 08:34:55;;;;;;;9.70;5.30;;;16.80;99.90;;;;;;5012165;28;20183;-68
2022/04/26 08:37:23;;;;;;;10.57;4.95;;;17.10;99.90;;;;;;5010583;28;20174;-74
2022/04/26 08:39:52;;;;;;;15.38;5.68;;;17.80;99.90;;;;;;5003275;28;20271;-76
2022/04/26 08:42:44;;;;;;;11.93;4.97;;;18.70;99.90;;;;;;5000054;28;20179;-76
2022/04/26 08:45:12;;;;;;;10.45;5.25;;;19.00;99.90;;;;;;4993811;28;20262;-76
2022/04/26 08:53:09;;;;;;;8.50;4.63;;;19.80;99.90;;;;;;4990365;28;20221;-76
2022/04/26 08:55:45;;;;;;;9.90;4.47;;;19.50;99.90;;;;;;4990126;28;20181;-76
2022/04/26 08:58:13;;;;;;;7.40;4.45;;;20.10;99.90;;;;;;4990339;28;20167;-75
2022/04/26 09:01:10;;;;;;;12.43;5.00;;;20.70;99.90;;;;;;4990499;28;20206;-75
2022/04/26 09:03:59;;;;;;;12.02;4.63;;;19.70;99.90;;;;;;4990443;28;20167;-76
2022/04/26 09:06:40;;;;;;;13.15;4.35;;;19.00;99.90;;;;;;4991038;28;20249;-75
2022/04/26 09:09:13;;;;;;;9.57;4.32;;;17.70;99.90;;;;;;4991921;28;20290;-74
2022/04/26 09:11:40;;;;;;;7.60;3.47;;;17.60;99.90;;;;;;4991814;28;20179;-75
2022/04/26 09:14:09;;;;;;;7.25;3.65;;;17.60;99.90;;;;;;4991765;28;20175;-74
2022/04/26 09:16:35;;;;;;;6.72;3.95;;;16.60;99.90;;;;;;4991756;28;20227;-73
2022/04/26 09:19:06;;;;;;;10.35;4.40;;;17.20;99.90;;;;;;4991270;28;20198;-74
2022/04/26 09:21:33;;;;;;;11.52;4.38;;;17.40;99.90;;;;;;4991933;28;20170;-75
2022/04/26 09:24:05;;;;;;;8.15;3.63;;;17.00;99.90;;;;;;4991629;28;20190;-74
2022/04/26 09:26:35;;;;;;;7.55;3.42;;;16.70;99.90;;;;;;4991390;28;20722;-74
2022/04/26 09:29:03;;;;;;;9.60;3.83;;;17.20;99.90;;;;;;4991574;28;20273;-74
2022/04/26 09:31:37;;;;;;;7.60;3.60;;;15.50;99.90;;;;;;4991566;28;20175;-74
2022/04/26 09:34:14;;;;;;;9.00;3.50;;;16.10;99.90;;;;;;4991755;28;20650;-74
2022/04/26 09:36:46;;;;;;;9.68;3.63;;;16.00;99.90;;;;;;4991498;28;20535;-74
2022/04/26 09:39:18;;;;;;;10.63;4.43;;;16.40;99.90;;;;;;4991560;28;20171;-74
2022/04/26 09:41:49;;;;;;;10.00;3.03;;;16.10;99.90;;;;;;4990139;28;20634;-76
2022/04/26 09:44:15;;;;;;;15.27;3.97;;;15.80;99.90;;;;;;4991515;28;20262;-76
2022/04/26 09:46:40;;;;;;;7.43;3.85;;;15.90;99.90;;;;;;4991396;28;20194;-74
2022/04/26 09:49:09;;;;;;;7.50;3.50;;;16.60;99.90;;;;;;4991109;28;20206;-76
2022/04/26 09:51:39;;;;;;;7.28;3.42;;;17.60;99.90;;;;;;4991217;28;20179;-74
2022/04/26 09:54:06;;;;;;;7.13;2.92;;;17.90;99.90;;;;;;4990198;28;20182;-74
2022/04/26 09:56:32;;;;;;;7.05;3.30;;;18.70;99.90;;;;;;4989996;28;20278;-74
2022/04/26 09:59:00;;;;;;;6.93;2.63;;;19.60;99.90;;;;;;4991234;28;20174;-74
2022/04/26 10:01:30;;;;;;;7.28;2.78;;;19.40;99.90;;;;;;4991297;28;20195;-75
2022/04/26 10:04:04;;;;;;;6.28;3.03;;;19.50;99.90;;;;;;4991325;28;20202;-73
2022/04/26 10:06:34;;;;;;;5.07;3.05;;;17.90;99.90;;;;;;4992562;28;20622;-73
2022/04/26 10:09:02;;;;;;;6.35;3.08;;;17.60;99.90;;;;;;4995084;28;20317;-74
2022/04/26 10:11:29;;;;;;;4.80;2.92;;;18.20;99.90;;;;;;4995306;28;20179;-73
2022/04/26 10:13:55;;;;;;;11.60;3.35;;;18.50;99.90;;;;;;4995043;28;20174;-74
2022/04/26 10:16:22;;;;;;;4.88;2.65;;;19.40;99.90;;;;;;4995177;28;20171;-74
2022/04/26 10:18:49;;;;;;;4.55;2.70;;;20.20;99.90;;;;;;4994636;28;20159;-73
2022/04/26 10:21:23;;;;;;;7.80;2.88;;;20.80;99.90;;;;;;4994895;28;20721;-72
2022/04/26 10:23:52;;;;;;;7.53;2.75;;;21.10;99.90;;;;;;4994909;28;20177;-74
2022/04/26 10:28:50;;;;;;;5.90;2.60;;;20.20;99.90;;;;;;4994854;28;20179;-73
2022/04/26 10:31:17;;;;;;;5.35;2.55;;;20.10;99.90;;;;;;4994813;28;20183;-73
2022/04/26 10:33:45;;;;;;;4.20;2.55;;;20.30;99.90;;;;;;4995483;28;20171;-73
2022/04/26 10:36:19;;;;;;;5.55;2.50;;;21.10;99.90;;;;;;5014023;28;20182;-73
2022/04/26 10:39:09;;;;;;;6.13;2.40;;;21.90;99.90;;;;;;5014127;28;20178;-73
2022/04/26 10:41:35;;;;;;;4.20;2.60;;;22.60;99.90;;;;;;5003380;28;20677;-73
2022/04/26 10:44:13;;;;;;;4.28;2.50;;;20.40;99.90;;;;;;5014003;28;20278;-74
2022/04/26 10:46:40;;;;;;;5.07;2.60;;;20.30;99.90;;;;;;5014024;28;20174;-72
2022/04/26 10:49:24;;;;;;;10.70;2.92;;;21.60;99.90;;;;;;5013723;28;20254;-75
2022/04/26 10:52:14;;;;;;;4.22;2.75;;;21.70;99.90;;;;;;5013892;28;20176;-75
2022/04/26 10:54:49;;;;;;;6.22;2.13;;;21.40;99.90;;;;;;5013963;28;20270;-74
2022/04/26 10:57:17;;;;;;;4.47;2.50;;;22.50;99.90;;;;;;5014097;28;20174;-75
2022/04/26 10:59:46;;;;;;;5.55;2.22;;;23.80;99.90;;;;;;5014007;28;20185;-74
2022/04/26 11:02:14;;;;;;;4.80;2.72;;;23.20;99.90;;;;;;5013762;28;20178;-75
2022/04/26 11:04:40;;;;;;;3.75;2.30;;;23.10;99.90;;;;;;5013668;28;20259;-73
2022/04/26 11:07:17;;;;;;;8.90;2.72;;;23.80;99.90;;;;;;5013452;28;20175;-71
2022/04/26 11:09:50;;;;;;;4.95;2.63;;;23.40;99.90;;;;;;5013518;28;20198;-72
2022/04/26 11:12:17;;;;;;;3.95;2.22;;;22.80;99.90;;;;;;5013532;28;20178;-74
2022/04/26 11:14:44;;;;;;;7.95;2.67;;;23.00;99.90;;;;;;5013508;28;20175;-74
2022/04/26 11:17:10;;;;;;;7.47;2.80;;;21.70;99.90;;;;;;5013250;28;20186;-74
2022/04/26 11:19:46;;;;;;;3.47;2.67;;;22.40;99.90;;;;;;5013484;28;20177;-74
2022/04/26 11:22:15;;;;;;;6.32;2.40;;;21.90;99.90;;;;;;5013513;28;20261;-76
2022/04/26 11:30:29;;;;;;;6.00;2.33;;;20.50;99.90;;;;;;5013246;28;20233;-73
2022/04/26 11:33:06;;;;;;;4.78;2.40;;;22.20;99.90;;;;;;5013344;28;20190;-74
2022/04/26 11:35:34;;;;;;;3.47;2.10;;;22.90;99.90;;;;;;5013105;28;20228;-74
2022/04/26 11:38:10;;;;;;;4.28;2.38;;;23.80;99.90;;;;;;5013110;28;20159;-74
2022/04/26 11:40:38;;;;;;;11.48;2.50;;;23.90;99.90;;;;;;5012991;28;20162;-73
2022/04/26 11:43:20;;;;;;;4.43;2.67;;;22.90;99.90;;;;;;5012893;28;20181;-74
2022/04/26 11:45:50;;;;;;;6.55;2.80;;;22.50;99.90;;;;;;5012966;28;20188;-73
2022/04/26 11:48:29;;;;;;;4.53;2.78;;;22.70;99.90;;;;;;5012859;28;20605;-73
2022/04/26 11:50:57;;;;;;;5.55;2.65;;;22.40;99.90;;;;;;5012786;28;20214;-74
2022/04/26 11:53:25;;;;;;;3.90;2.30;;;22.10;99.90;;;;;;5012743;28;20250;-74
2022/04/26 11:56:00;;;;;;;4.40;2.50;;;23.80;99.90;;;;;;5012940;28;20641;-74
2022/04/26 11:58:39;;;;;;;5.75;2.33;;;24.90;99.90;;;;;;5012580;28;20166;-75
2022/04/26 12:01:13;;;;;;;5.05;2.58;;;25.00;98.20;;;;;;5013152;28;20360;-75
2022/04/26 12:03:52;;;;;;;2.58;2.20;;;22.70;99.10;;;;;;5012480;28;20248;-74
2022/04/26 12:06:29;;;;;;;3.08;1.90;;;22.50;98.30;;;;;;5012553;28;20223;-73
2022/04/26 12:09:00;;;;;;;4.07;2.30;;;22.30;99.30;;;;;;5012497;28;20166;-73
2022/04/26 12:11:36;;;;;;;4.55;1.90;;;23.30;98.10;;;;;;5012446;28;20175;-73
2022/04/26 12:14:16;;;;;;;18.15;4.85;;;23.60;98.20;;;;;;5012253;28;20197;-75
2022/04/26 12:16:47;;;;;;;14.93;2.90;;;25.40;98.20;;;;;;5012261;28;20170;-75
2022/04/26 12:19:14;;;;;;;3.65;2.10;;;25.70;97.70;;;;;;5012370;28;20174;-74
2022/04/26 12:22:00;;;;;;;3.42;2.10;;;24.50;97.10;;;;;;5012265;28;20186;-75
2022/04/26 12:24:29;;;;;;;2.17;1.73;;;23.90;96.60;;;;;;5012073;28;20162;-75
2022/04/26 12:27:25;;;;;;;4.03;1.77;;;24.20;97.10;;;;;;5012072;28;20241;-75
2022/04/26 12:29:52;;;;;;;4.07;2.13;;;25.00;95.90;;;;;;4995489;28;20237;-74
2022/04/26 12:32:21;;;;;;;3.78;2.05;;;23.60;95.70;;;;;;5012567;28;20166;-73
2022/04/26 12:34:52;;;;;;;3.80;2.38;;;22.70;96.60;;;;;;5011953;28;20178;-73
2022/04/26 12:37:22;;;;;;;4.05;2.35;;;23.30;96.10;;;;;;5011900;28;20170;-75
2022/04/26 12:39:53;;;;;;;4.28;2.17;;;23.80;96.80;;;;;;5012103;28;20174;-77
2022/04/26 12:42:29;;;;;;;3.17;2.35;;;24.20;96.10;;;;;;5011921;28;20539;-76
2022/04/26 12:45:01;;;;;;;4.72;2.35;;;21.80;96.00;;;;;;5011871;28;20277;-73
2022/04/26 12:50:28;;;;;;;3.55;1.95;;;25.00;96.50;;;;;;5012437;28;20232;-73
2022/04/26 12:53:02;;;;;;;4.47;2.35;;;24.40;95.90;;;;;;5012204;28;20258;-73
2022/04/26 12:55:35;;;;;;;4.80;2.25;;;24.40;95.70;;;;;;5012424;28;20174;-72
2022/04/26 12:58:05;;;;;;;8.60;2.50;;;25.30;96.50;;;;;;5012866;28;20210;-74
2022/04/26 13:00:32;;;;;;;3.45;2.35;;;25.60;97.00;;;;;;5012467;28;20228;-74
2022/04/26 13:03:04;;;;;;;4.45;2.17;;;25.90;95.30;;;;;;5011117;28;20175;-72
2022/04/26 13:05:41;;;;;;;8.30;2.40;;;24.20;94.30;;;;;;5009940;28;20652;-62
2022/04/26 13:08:08;;;;;;;2.60;1.75;;;23.00;95.20;;;;;;5009969;28;20261;-69
2022/04/26 13:10:34;;;;;;;4.55;2.40;;;22.40;95.50;;;;;;5009555;28;20241;-67
2022/04/26 13:13:00;;;;;;;7.30;2.20;;;21.60;96.50;;;;;;5011232;28;20177;-67
2022/04/26 13:15:27;;;;;;;6.60;2.45;;;21.40;97.80;;;;;;5002497;28;20175;-66
2022/04/26 13:17:57;;;;;;;5.10;2.15;;;21.20;98.10;;;;;;4991375;28;20643;-67
2022/04/26 13:20:22;;;;;;;3.85;2.10;;;21.20;98.10;;;;;;4992303;28;20179;-67
2022/04/26 13:22:48;;;;;;;3.92;2.40;;;21.00;97.90;;;;;;5011090;28;20171;-66
2022/04/26 13:25:14;;;;;;;3.53;2.15;;;21.10;98.00;;;;;;5014629;28;20190;-67
2022/04/26 13:27:40;;;;;;;6.15;2.22;;;21.00;98.40;;;;;;5014234;28;20179;-67
2022/04/26 13:30:07;;;;;;;7.88;2.58;;;20.50;98.30;;;;;;4997252;28;20218;-67
2022/04/26 13:32:34;;;;;;;3.33;2.20;;;20.20;99.40;;;;;;5007223;28;20170;-66
2022/04/26 13:35:01;;;;;;;6.10;1.90;;;20.70;99.90;;;;;;4992749;28;20245;-66
2022/04/26 13:37:28;;;;;;;3.95;2.08;;;20.40;98.20;;;;;;5009454;28;20170;-67
2022/04/26 13:39:54;;;;;;;7.60;2.53;;;19.90;99.00;;;;;;5009828;28;20209;-68
2022/04/26 13:42:23;;;;;;;3.08;2.00;;;19.90;98.80;;;;;;4993642;28;20250;-67
2022/04/26 13:44:52;;;;;;;4.22;2.00;;;19.60;98.20;;;;;;4991633;28;20186;-67
2022/04/26 13:47:19;;;;;;;6.07;2.20;;;19.70;98.10;;;;;;4991498;28;20207;-68
2022/04/26 13:49:44;;;;;;;3.55;1.98;;;19.10;98.20;;;;;;4991198;28;20306;-67
2022/04/26 13:52:10;;;;;;;3.65;1.92;;;20.10;98.50;;;;;;4990459;28;20266;-67
2022/04/26 13:54:37;;;;;;;5.25;2.10;;;21.80;98.50;;;;;;5002316;28;20983;-67
2022/04/26 13:57:05;;;;;;;5.68;1.92;;;23.00;96.80;;;;;;5011032;28;20186;-67
2022/04/26 13:59:31;;;;;;;4.03;1.80;;;23.70;96.60;;;;;;5010896;28;20186;-68
2022/04/26 14:01:57;;;;;;;2.97;1.73;;;23.20;96.00;;;;;;4998484;28;20610;-67
2022/04/26 14:04:23;;;;;;;3.28;2.10;;;22.50;96.00;;;;;;4991001;28;20261;-68
2022/04/26 14:06:49;;;;;;;3.13;1.70;;;21.80;95.60;;;;;;4991162;28;20179;-66
2022/04/26 14:09:17;;;;;;;5.43;1.30;;;21.20;95.70;;;;;;4990990;28;20277;-67
2022/04/26 14:11:45;;;;;;;3.92;1.60;;;20.90;96.10;;;;;;4990945;28;20182;-67
2022/04/26 14:22:30;;;;;;;4.00;1.90;;;22.80;94.70;;;;;;5000349;28;20595;-68
2022/04/26 14:25:00;;;;;;;3.33;1.88;;;22.00;93.80;;;;;;5001887;28;20225;-68
2022/04/26 14:27:27;;;;;;;4.22;2.00;;;23.00;94.90;;;;;;4970259;28;20271;-68
2022/04/26 14:29:53;;;;;;;3.22;1.80;;;23.40;94.50;;;;;;4970747;28;20204;-67
2022/04/26 14:32:19;;;;;;;4.25;1.70;;;23.20;95.60;;;;;;4970438;28;20327;-67
2022/04/26 14:34:46;;;;;;;3.78;1.73;;;23.60;94.70;;;;;;4970571;28;20255;-66
2022/04/26 14:37:12;;;;;;;6.82;1.60;;;22.80;94.00;;;;;;4969973;28;20176;-67
2022/04/26 14:39:38;;;;;;;3.30;1.70;;;21.90;95.20;;;;;;4970338;28;20172;-66
2022/04/26 14:42:05;;;;;;;4.88;1.40;;;21.50;94.90;;;;;;4970847;28;20188;-68
2022/04/26 14:44:31;;;;;;;2.65;1.92;;;21.10;95.00;;;;;;4972184;28;20255;-65
2022/04/26 14:46:57;;;;;;;3.67;1.65;;;20.60;95.10;;;;;;4972662;28;20718;-64
2022/04/26 14:49:23;;;;;;;4.82;1.70;;;20.20;95.30;;;;;;4971490;28;20278;-64
2022/04/26 14:51:49;;;;;;;5.70;1.83;;;20.00;95.40;;;;;;4971558;28;20207;-64
2022/04/26 14:54:15;;;;;;;2.60;1.70;;;19.70;96.30;;;;;;4974806;28;20525;-63
2022/04/26 14:56:41;;;;;;;4.20;1.70;;;20.70;95.90;;;;;;4974084;28;20186;-64
2022/04/26 14:59:07;;;;;;;5.43;1.63;;;20.80;95.50;;;;;;4974904;28;20191;-63
2022/04/26 15:01:34;;;;;;;3.20;1.38;;;21.10;94.10;;;;;;4974368;28;20184;-64
2022/04/26 15:03:59;;;;;;;3.38;1.55;;;20.00;93.30;;;;;;4974408;28;20211;-64
2022/04/26 15:06:26;;;;;;;3.78;2.00;;;19.50;94.60;;;;;;4974612;28;20678;-63
2022/04/26 15:11:36;;;;;;;3.75;1.80;;;19.60;96.40;;;;;;4974181;28;20254;-64
2022/04/26 15:16:49;;;;;;;5.05;1.92;;;19.00;98.50;;;;;;4973514;28;20314;-64
2022/04/26 15:19:16;;;;;;;9.70;2.33;;;19.20;98.80;;;;;;4974181;28;20199;-64
2022/04/26 15:21:43;;;;;;;4.68;2.53;;;19.10;98.40;;;;;;4974388;28;20183;-63
2022/04/26 15:24:13;;;;;;;6.15;2.28;;;19.10;99.20;;;;;;4974178;28;20195;-64
2022/04/26 15:26:40;;;;;;;3.97;2.60;;;19.00;99.70;;;;;;4997731;28;20218;-64
2022/04/26 15:29:06;;;;;;;4.40;1.98;;;18.90;99.90;;;;;;5012989;28;20317;-65
2022/04/26 15:31:33;;;;;;;4.45;2.30;;;18.70;99.90;;;;;;5012728;28;20193;-64
2022/04/26 15:33:59;;;;;;;2.20;1.60;;;18.60;99.90;;;;;;5012732;28;20178;-64
2022/04/26 15:36:24;;;;;;;5.68;1.90;;;18.70;99.90;;;;;;5012908;28;20289;-64
2022/04/26 15:38:54;;;;;;;3.25;2.28;;;18.90;99.90;;;;;;5012882;28;20181;-65
2022/04/26 15:41:23;;;;;;;4.55;2.22;;;18.90;99.90;;;;;;5012770;28;20213;-64
2022/04/26 15:43:49;;;;;;;12.15;2.17;;;19.10;99.90;;;;;;5012749;28;20166;-65
2022/04/26 15:46:15;;;;;;;5.55;1.90;;;19.10;99.90;;;;;;5012640;28;20258;-64
2022/04/26 15:48:47;;;;;;;4.05;2.60;;;19.30;99.90;;;;;;5012782;28;20183;-63
2022/04/26 15:51:15;;;;;;;2.83;1.95;;;19.90;99.90;;;;;;5012330;28;20233;-63
2022/04/26 15:53:42;;;;;;;5.55;2.53;;;21.40;99.90;;;;;;5010782;28;20256;-63
2022/04/26 15:56:08;;;;;;;4.00;2.45;;;21.40;98.70;;;;;;5011479;28;20182;-63
2022/04/26 15:58:34;;;;;;;4.15;2.15;;;21.90;98.20;;;;;;5011811;28;20407;-63
2022/04/26 16:00:59;;;;;;;4.57;2.38;;;21.70;98.30;;;;;;5012434;28;20171;-63
2022/04/26 16:03:25;;;;;;;2.65;2.00;;;20.50;98.10;;;;;;5000299;28;20171;-64
2022/04/26 16:05:51;;;;;;;3.95;2.08;;;20.30;99.10;;;;;;4992549;28;20653;-64
2022/04/26 16:08:17;;;;;;;4.90;2.30;;;20.20;98.90;;;;;;5008942;28;20174;-64
2022/04/26 16:21:39;;;;;;;3.83;2.22;;;20.00;99.80;;;;;;4992667;28;20258;-66
2022/04/26 16:24:06;;;;;;;3.42;1.90;;;19.90;99.50;;;;;;5009521;28;20213;-64
2022/04/26 16:26:34;;;;;;;3.97;2.30;;;19.80;99.50;;;;;;5011120;28;20715;-64
2022/04/26 16:29:03;;;;;;;2.55;1.83;;;19.50;99.10;;;;;;5011993;28;20179;-64
2022/04/26 16:31:29;;;;;;;2.65;1.80;;;19.50;99.90;;;;;;5011962;28;20178;-64
2022/04/26 16:33:56;;;;;;;5.50;2.10;;;19.30;99.00;;;;;;5004243;28;20181;-64
2022/04/26 16:36:23;;;;;;;3.47;1.90;;;18.90;98.80;;;;;;4992702;28;20190;-64
2022/04/26 16:38:49;;;;;;;3.80;1.90;;;18.80;99.40;;;;;;5011654;28;20194;-69
2022/04/26 16:41:15;;;;;;;4.45;2.10;;;18.90;99.90;;;;;;5010721;28;20192;-64
2022/04/26 16:43:43;;;;;;;3.70;2.35;;;18.80;99.90;;;;;;5005134;28;20646;-65
2022/04/26 16:46:09;;;;;;;5.20;2.30;;;18.60;99.90;;;;;;4999366;28;20722;-65
2022/04/26 16:48:35;;;;;;;5.32;2.38;;;18.40;99.90;;;;;;5000017;28;20202;-65
2022/04/26 16:51:01;;;;;;;3.88;2.40;;;18.20;99.90;;;;;;4998244;28;20214;-65
2022/04/26 16:53:27;;;;;;;5.20;2.40;;;18.10;99.90;;;;;;5010961;28;20577;-65
2022/04/26 16:55:53;;;;;;;4.78;2.20;;;17.90;99.90;;;;;;5010137;28;20244;-65
2022/04/26 16:58:19;;;;;;;3.88;2.33;;;17.80;99.90;;;;;;5010266;28;20172;-65
2022/04/26 17:00:46;;;;;;;4.30;2.35;;;17.70;99.90;;;;;;5010543;28;20179;-65
2022/04/26 17:03:15;;;;;;;6.60;2.47;;;17.60;99.90;;;;;;5007813;28;20196;-65
2022/04/26 17:05:45;;;;;;;4.43;2.47;;;17.80;99.90;;;;;;4998477;28;20586;-64
2022/04/26 17:08:15;;;;;;;5.57;2.67;;;17.80;99.90;;;;;;5009896;28;20175;-64
2022/04/26 17:10:45;;;;;;;3.28;2.08;;;17.80;99.90;;;;;;5010267;28;20751;-64
2022/04/26 17:13:12;;;;;;;5.15;2.33;;;17.70;99.90;;;;;;5002359;28;20203;-64
2022/04/26 17:15:38;;;;;;;5.05;2.40;;;17.70;99.90;;;;;;4994707;28;20229;-63
2022/04/26 17:18:06;;;;;;;5.55;2.10;;;17.40;99.90;;;;;;5009773;28;20178;-64